sensor_id;sensor_type;location;lat;lon;timestamp;P1;durP1;ratioP1;P2;durP2;ratioP2
27863;SDS011;15980;51.092;13.916;2023-10-19T00:08:28;12.23;;;6.72;;
27863;SDS011;15980;51.092;13.916;2023-10-19T00:18:28;12.70;;;6.05;;
27863;SDS011;15980;51.092;13.916;2023-10-19T00:28:28;15.32;;;6.18;;
27863;SDS011;15980;51.092;13.916;2023-10-19T00:38:29;18.00;;;6.35;;
27863;SDS011;15980;51.092;13.916;2023-10-19T00:48:29;9.68;;;5.68;;
27863;SDS011;15980;51.092;13.916;2023-10-19T00:58:31;14.10;;;6.30;;
27863;SDS011;15980;51.092;13.916;2023-10-19T01:08:32;14.23;;;7.07;;
27863;SDS011;15980;51.092;13.916;2023-10-19T01:18:33;11.63;;;6.07;;
27863;SDS011;15980;51.092;13.916;2023-10-19T01:28:36;10.95;;;6.10;;
27863;SDS011;15980;51.092;13.916;2023-10-19T01:38:38;13.48;;;7.10;;
27863;SDS011;15980;51.092;13.916;2023-10-19T01:48:39;15.70;;;7.00;;
27863;SDS011;15980;51.092;13.916;2023-10-19T01:58:41;13.68;;;7.45;;
27863;SDS011;15980;51.092;13.916;2023-10-19T02:08:48;15.63;;;7.27;;
27863;SDS011;15980;51.092;13.916;2023-10-19T02:18:50;17.15;;;8.10;;
27863;SDS011;15980;51.092;13.916;2023-10-19T02:28:50;17.93;;;8.10;;
27863;SDS011;15980;51.092;13.916;2023-10-19T02:38:50;16.10;;;7.43;;
27863;SDS011;15980;51.092;13.916;2023-10-19T02:48:51;21.63;;;8.88;;
27863;SDS011;15980;51.092;13.916;2023-10-19T02:58:51;17.42;;;8.80;;
27863;SDS011;15980;51.092;13.916;2023-10-19T03:08:51;15.25;;;8.30;;
27863;SDS011;15980;51.092;13.916;2023-10-19T03:18:52;16.48;;;8.18;;
27863;SDS011;15980;51.092;13.916;2023-10-19T03:28:52;20.15;;;8.98;;
27863;SDS011;15980;51.092;13.916;2023-10-19T03:38:52;18.15;;;9.57;;
27863;SDS011;15980;51.092;13.916;2023-10-19T03:48:52;19.98;;;9.57;;
27863;SDS011;15980;51.092;13.916;2023-10-19T03:58:53;24.48;;;10.98;;
27863;SDS011;15980;51.092;13.916;2023-10-19T04:08:53;21.90;;;11.35;;
27863;SDS011;15980;51.092;13.916;2023-10-19T04:18:53;29.60;;;11.63;;
27863;SDS011;15980;51.092;13.916;2023-10-19T04:28:53;27.95;;;13.18;;
27863;SDS011;15980;51.092;13.916;2023-10-19T04:38:54;29.70;;;14.15;;
27863;SDS011;15980;51.092;13.916;2023-10-19T04:48:54;28.70;;;14.35;;
27863;SDS011;15980;51.092;13.916;2023-10-19T04:58:54;28.55;;;14.90;;
27863;SDS011;15980;51.092;13.916;2023-10-19T05:08:55;33.08;;;15.98;;
27863;SDS011;15980;51.092;13.916;2023-10-19T05:18:55;30.95;;;15.50;;
27863;SDS011;15980;51.092;13.916;2023-10-19T05:28:55;30.55;;;15.10;;
27863;SDS011;15980;51.092;13.916;2023-10-19T05:38:55;33.67;;;16.65;;
27863;SDS011;15980;51.092;13.916;2023-10-19T05:48:56;34.65;;;17.63;;
27863;SDS011;15980;51.092;13.916;2023-10-19T05:58:56;32.95;;;16.70;;
27863;SDS011;15980;51.092;13.916;2023-10-19T06:08:57;34.10;;;17.38;;
27863;SDS011;15980;51.092;13.916;2023-10-19T06:18:57;39.17;;;19.02;;
27863;SDS011;15980;51.092;13.916;2023-10-19T06:28:58;39.45;;;18.80;;
27863;SDS011;15980;51.092;13.916;2023-10-19T06:38:58;40.15;;;18.80;;
27863;SDS011;15980;51.092;13.916;2023-10-19T06:48:58;38.72;;;19.48;;
27863;SDS011;15980;51.092;13.916;2023-10-19T06:58:59;45.63;;;20.48;;
27863;SDS011;15980;51.092;13.916;2023-10-19T07:08:59;36.25;;;19.52;;
27863;SDS011;15980;51.092;13.916;2023-10-19T07:18:59;41.63;;;19.33;;
27863;SDS011;15980;51.092;13.916;2023-10-19T07:28:59;38.60;;;18.83;;
27863;SDS011;15980;51.092;13.916;2023-10-19T07:39:00;41.38;;;18.75;;
27863;SDS011;15980;51.092;13.916;2023-10-19T07:49:00;40.15;;;19.52;;
27863;SDS011;15980;51.092;13.916;2023-10-19T07:59:00;37.30;;;19.75;;
27863;SDS011;15980;51.092;13.916;2023-10-19T08:09:01;38.25;;;19.90;;
27863;SDS011;15980;51.092;13.916;2023-10-19T08:19:01;35.72;;;18.80;;
27863;SDS011;15980;51.092;13.916;2023-10-19T08:29:02;34.35;;;18.58;;
27863;SDS011;15980;51.092;13.916;2023-10-19T08:39:03;37.83;;;17.67;;
27863;SDS011;15980;51.092;13.916;2023-10-19T08:49:06;33.35;;;17.55;;
27863;SDS011;15980;51.092;13.916;2023-10-19T08:59:07;47.78;;;21.23;;
27863;SDS011;15980;51.092;13.916;2023-10-19T09:09:11;33.78;;;17.65;;
27863;SDS011;15980;51.092;13.916;2023-10-19T09:19:12;31.85;;;17.20;;
27863;SDS011;15980;51.092;13.916;2023-10-19T09:29:13;26.02;;;15.25;;
27863;SDS011;15980;51.092;13.916;2023-10-19T09:39:17;26.92;;;14.95;;
27863;SDS011;15980;51.092;13.916;2023-10-19T09:49:18;26.58;;;13.95;;
27863;SDS011;15980;51.092;13.916;2023-10-19T09:59:23;25.77;;;13.02;;
27863;SDS011;15980;51.092;13.916;2023-10-19T10:09:34;16.33;;;9.33;;
27863;SDS011;15980;51.092;13.916;2023-10-19T10:19:36;22.73;;;12.55;;
27863;SDS011;15980;51.092;13.916;2023-10-19T10:29:36;25.17;;;14.07;;
27863;SDS011;15980;51.092;13.916;2023-10-19T10:39:37;29.05;;;16.08;;
27863;SDS011;15980;51.092;13.916;2023-10-19T10:49:49;27.98;;;15.68;;
27863;SDS011;15980;51.092;13.916;2023-10-19T11:00:04;31.77;;;17.13;;
27863;SDS011;15980;51.092;13.916;2023-10-19T11:10:06;33.28;;;17.23;;
27863;SDS011;15980;51.092;13.916;2023-10-19T11:20:07;35.67;;;19.13;;
27863;SDS011;15980;51.092;13.916;2023-10-19T11:30:08;40.40;;;19.50;;
27863;SDS011;15980;51.092;13.916;2023-10-19T11:40:09;38.42;;;20.33;;
27863;SDS011;15980;51.092;13.916;2023-10-19T11:50:13;37.65;;;20.38;;
27863;SDS011;15980;51.092;13.916;2023-10-19T12:00:13;38.00;;;19.42;;
27863;SDS011;15980;51.092;13.916;2023-10-19T12:10:14;31.42;;;17.40;;
27863;SDS011;15980;51.092;13.916;2023-10-19T12:20:14;34.33;;;17.15;;
27863;SDS011;15980;51.092;13.916;2023-10-19T12:30:14;38.55;;;20.38;;
27863;SDS011;15980;51.092;13.916;2023-10-19T12:40:14;35.50;;;19.13;;
27863;SDS011;15980;51.092;13.916;2023-10-19T12:50:15;39.65;;;21.85;;
27863;SDS011;15980;51.092;13.916;2023-10-19T13:00:15;44.28;;;22.65;;
27863;SDS011;15980;51.092;13.916;2023-10-19T13:10:16;44.42;;;22.38;;
27863;SDS011;15980;51.092;13.916;2023-10-19T13:20:16;42.53;;;23.00;;
27863;SDS011;15980;51.092;13.916;2023-10-19T13:30:16;45.22;;;23.25;;
27863;SDS011;15980;51.092;13.916;2023-10-19T13:40:16;42.28;;;22.85;;
27863;SDS011;15980;51.092;13.916;2023-10-19T13:50:17;39.15;;;20.90;;
27863;SDS011;15980;51.092;13.916;2023-10-19T14:00:17;36.88;;;20.15;;
27863;SDS011;15980;51.092;13.916;2023-10-19T14:10:19;43.67;;;22.48;;
27863;SDS011;15980;51.092;13.916;2023-10-19T14:20:19;50.80;;;23.90;;
27863;SDS011;15980;51.092;13.916;2023-10-19T14:30:23;46.17;;;23.67;;
27863;SDS011;15980;51.092;13.916;2023-10-19T14:40:25;46.67;;;24.05;;
27863;SDS011;15980;51.092;13.916;2023-10-19T14:50:27;53.20;;;25.17;;
27863;SDS011;15980;51.092;13.916;2023-10-19T15:00:27;47.95;;;25.00;;
27863;SDS011;15980;51.092;13.916;2023-10-19T15:10:28;52.53;;;26.30;;
27863;SDS011;15980;51.092;13.916;2023-10-19T15:20:28;47.20;;;24.85;;
27863;SDS011;15980;51.092;13.916;2023-10-19T15:30:30;62.45;;;31.83;;
27863;SDS011;15980;51.092;13.916;2023-10-19T15:40:30;71.72;;;35.67;;
27863;SDS011;15980;51.092;13.916;2023-10-19T15:50:30;61.50;;;32.80;;
27863;SDS011;15980;51.092;13.916;2023-10-19T16:00:30;62.38;;;32.17;;
27863;SDS011;15980;51.092;13.916;2023-10-19T16:10:31;55.97;;;29.48;;
27863;SDS011;15980;51.092;13.916;2023-10-19T16:20:31;69.32;;;31.38;;
27863;SDS011;15980;51.092;13.916;2023-10-19T16:30:31;75.05;;;33.25;;
27863;SDS011;15980;51.092;13.916;2023-10-19T16:40:31;72.85;;;33.67;;
27863;SDS011;15980;51.092;13.916;2023-10-19T16:50:32;74.47;;;31.92;;
27863;SDS011;15980;51.092;13.916;2023-10-19T17:00:32;65.93;;;32.00;;
27863;SDS011;15980;51.092;13.916;2023-10-19T17:10:32;69.25;;;32.92;;
27863;SDS011;15980;51.092;13.916;2023-10-19T17:20:34;71.57;;;33.47;;
27863;SDS011;15980;51.092;13.916;2023-10-19T17:30:34;69.85;;;31.98;;
27863;SDS011;15980;51.092;13.916;2023-10-19T17:40:35;70.90;;;32.78;;
27863;SDS011;15980;51.092;13.916;2023-10-19T17:50:35;68.60;;;32.17;;
27863;SDS011;15980;51.092;13.916;2023-10-19T18:00:39;66.93;;;30.38;;
27863;SDS011;15980;51.092;13.916;2023-10-19T18:10:40;64.32;;;30.05;;
27863;SDS011;15980;51.092;13.916;2023-10-19T18:20:40;70.90;;;30.02;;
27863;SDS011;15980;51.092;13.916;2023-10-19T18:30:41;65.10;;;30.48;;
27863;SDS011;15980;51.092;13.916;2023-10-19T18:40:41;64.53;;;29.67;;
27863;SDS011;15980;51.092;13.916;2023-10-19T18:50:41;73.82;;;30.67;;
27863;SDS011;15980;51.092;13.916;2023-10-19T19:00:42;72.55;;;30.30;;
27863;SDS011;15980;51.092;13.916;2023-10-19T19:10:42;76.82;;;31.70;;
27863;SDS011;15980;51.092;13.916;2023-10-19T19:20:42;79.07;;;34.50;;
27863;SDS011;15980;51.092;13.916;2023-10-19T19:30:43;74.07;;;33.03;;
27863;SDS011;15980;51.092;13.916;2023-10-19T19:40:43;78.43;;;34.03;;
27863;SDS011;15980;51.092;13.916;2023-10-19T19:50:43;83.72;;;36.20;;
27863;SDS011;15980;51.092;13.916;2023-10-19T20:00:44;80.00;;;35.85;;
27863;SDS011;15980;51.092;13.916;2023-10-19T20:10:44;79.85;;;36.85;;
27863;SDS011;15980;51.092;13.916;2023-10-19T20:20:45;84.95;;;37.35;;
27863;SDS011;15980;51.092;13.916;2023-10-19T20:30:45;82.07;;;38.05;;
27863;SDS011;15980;51.092;13.916;2023-10-19T20:40:46;81.65;;;37.45;;
27863;SDS011;15980;51.092;13.916;2023-10-19T20:50:47;85.30;;;36.83;;
27863;SDS011;15980;51.092;13.916;2023-10-19T21:00:47;89.80;;;41.22;;
27863;SDS011;15980;51.092;13.916;2023-10-19T21:10:47;84.85;;;37.80;;
27863;SDS011;15980;51.092;13.916;2023-10-19T21:20:54;90.25;;;41.10;;
27863;SDS011;15980;51.092;13.916;2023-10-19T21:30:55;93.32;;;41.83;;
27863;SDS011;15980;51.092;13.916;2023-10-19T21:40:56;91.05;;;40.92;;
27863;SDS011;15980;51.092;13.916;2023-10-19T21:50:57;94.25;;;41.75;;
27863;SDS011;15980;51.092;13.916;2023-10-19T22:00:57;92.78;;;41.88;;
27863;SDS011;15980;51.092;13.916;2023-10-19T22:10:58;92.85;;;39.38;;
27863;SDS011;15980;51.092;13.916;2023-10-19T22:20:58;94.10;;;40.83;;
27863;SDS011;15980;51.092;13.916;2023-10-19T22:30:58;92.43;;;40.25;;
27863;SDS011;15980;51.092;13.916;2023-10-19T22:40:59;95.90;;;41.20;;
27863;SDS011;15980;51.092;13.916;2023-10-19T22:50:59;87.90;;;39.08;;
27863;SDS011;15980;51.092;13.916;2023-10-19T23:01:00;93.13;;;40.83;;
27863;SDS011;15980;51.092;13.916;2023-10-19T23:11:00;96.10;;;39.53;;
27863;SDS011;15980;51.092;13.916;2023-10-19T23:21:01;92.38;;;40.83;;
27863;SDS011;15980;51.092;13.916;2023-10-19T23:31:04;88.82;;;40.35;;
27863;SDS011;15980;51.092;13.916;2023-10-19T23:41:05;95.50;;;39.45;;
27863;SDS011;15980;51.092;13.916;2023-10-19T23:51:05;86.45;;;38.17;;
